createdAt,value
2018-09-16T00:00:34.439Z,17.25
2018-09-16T00:03:02.716Z,17.27
2018-09-16T00:05:30.989Z,17.26
2018-09-16T00:07:59.308Z,17.22
2018-09-16T00:10:28.347Z,17.13
2018-09-16T00:12:56.641Z,17.11
2018-09-16T00:15:24.945Z,17.14
2018-09-16T00:17:53.243Z,17.06
2018-09-16T00:20:21.502Z,17.07
2018-09-16T00:22:49.804Z,17.00
2018-09-16T00:25:18.051Z,17.01
2018-09-16T00:27:46.308Z,16.97
2018-09-16T00:30:15.312Z,16.92
2018-09-16T00:32:43.759Z,16.84
2018-09-16T00:35:12.645Z,16.81
2018-09-16T00:37:40.922Z,16.79
2018-09-16T00:40:09.200Z,16.78
2018-09-16T00:42:37.460Z,16.77
2018-09-16T00:45:06.041Z,16.74
2018-09-16T00:47:34.321Z,16.75
2018-09-16T00:50:03.255Z,16.73
2018-09-16T00:52:31.565Z,16.76
2018-09-16T00:54:59.869Z,16.75
2018-09-16T00:57:28.137Z,16.74
2018-09-16T00:59:56.410Z,16.72
2018-09-16T01:02:24.636Z,16.70
2018-09-16T01:04:52.892Z,16.75
2018-09-16T01:07:21.116Z,16.74
2018-09-16T01:09:49.381Z,16.68
2018-09-16T01:12:17.593Z,16.66
2018-09-16T01:14:45.832Z,16.62
2018-09-16T01:17:14.044Z,16.57
2018-09-16T01:19:43.840Z,16.58
2018-09-16T01:22:12.081Z,16.56
2018-09-16T01:24:40.301Z,16.55
2018-09-16T01:27:08.537Z,16.54
2018-09-16T01:29:36.762Z,16.52
2018-09-16T01:32:05.083Z,16.51
2018-09-16T01:34:33.301Z,16.53
2018-09-16T01:37:05.721Z,16.49
2018-09-16T01:39:34.112Z,16.45
2018-09-16T01:42:02.377Z,16.44
2018-09-16T01:44:30.609Z,16.39
2018-09-16T01:46:58.861Z,16.36
2018-09-16T01:49:27.084Z,16.33
2018-09-16T01:51:55.325Z,16.32
2018-09-16T01:54:23.548Z,16.31
2018-09-16T01:56:51.782Z,16.27
2018-09-16T01:59:20.040Z,16.28
2018-09-16T02:01:48.297Z,16.24
2018-09-16T02:04:16.533Z,16.20
2018-09-16T02:06:44.770Z,16.19
2018-09-16T02:09:12.985Z,16.17
2018-09-16T02:11:41.246Z,16.16
2018-09-16T02:14:09.480Z,16.14
2018-09-16T02:16:37.752Z,16.10
2018-09-16T02:19:06.040Z,15.98
2018-09-16T02:21:34.269Z,15.95
2018-09-16T02:24:02.512Z,15.90
2018-09-16T02:26:30.784Z,15.82
2018-09-16T02:28:59.088Z,15.75
2018-09-16T02:31:27.321Z,15.72
2018-09-16T02:33:55.581Z,15.75
2018-09-16T02:36:23.793Z,15.78
2018-09-16T02:38:52.065Z,15.80
2018-09-16T02:41:20.285Z,15.79
2018-09-16T02:43:48.569Z,15.78
2018-09-16T02:46:16.788Z,15.79
2018-09-16T02:48:45.018Z,15.75
2018-09-16T02:51:13.261Z,15.77
2018-09-16T02:53:41.496Z,15.78
2018-09-16T02:56:09.718Z,15.80
2018-09-16T02:58:37.949Z,15.81
2018-09-16T03:01:06.192Z,15.77
2018-09-16T03:03:34.545Z,15.76
2018-09-16T03:06:02.754Z,15.73
2018-09-16T03:08:30.998Z,15.65
2018-09-16T03:10:59.230Z,15.62
2018-09-16T03:13:27.464Z,15.58
2018-09-16T03:15:55.686Z,15.54
2018-09-16T03:18:23.929Z,15.52
2018-09-16T03:20:52.136Z,15.54
2018-09-16T03:23:20.354Z,15.50
2018-09-16T03:25:48.568Z,15.47
2018-09-16T03:28:16.805Z,15.44
2018-09-16T03:30:45.049Z,15.39
2018-09-16T03:33:13.253Z,15.41
2018-09-16T03:35:41.480Z,15.49
2018-09-16T03:38:09.685Z,15.52
2018-09-16T03:40:37.943Z,15.53
2018-09-16T03:43:06.320Z,15.56
2018-09-16T03:45:34.557Z,15.58
2018-09-16T03:48:02.801Z,15.54
2018-09-16T03:50:31.041Z,15.50
2018-09-16T03:52:59.249Z,15.47
2018-09-16T03:55:27.475Z,15.54
2018-09-16T03:57:55.680Z,15.58
2018-09-16T04:00:23.950Z,15.57
2018-09-16T04:02:52.188Z,15.58
2018-09-16T04:05:20.784Z,15.61
2018-09-16T04:07:49.956Z,15.59
2018-09-16T04:10:18.233Z,15.65
2018-09-16T04:12:46.603Z,15.63
2018-09-16T04:15:14.880Z,15.57
2018-09-16T04:17:43.115Z,15.54
2018-09-16T04:20:11.344Z,15.52
2018-09-16T04:22:39.601Z,15.55
2018-09-16T04:25:08.143Z,15.53
2018-09-16T04:27:36.369Z,15.55
2018-09-16T04:30:04.953Z,15.53
2018-09-16T04:32:33.217Z,15.48
2018-09-16T04:35:01.449Z,15.36
2018-09-16T04:37:29.690Z,15.33
2018-09-16T04:39:57.925Z,15.33
2018-09-16T04:42:26.185Z,15.29
2018-09-16T04:44:55.467Z,15.25
2018-09-16T04:47:23.697Z,15.21
2018-09-16T04:49:51.917Z,15.22
2018-09-16T04:52:20.190Z,15.19
2018-09-16T04:54:48.417Z,15.19
2018-09-16T04:57:16.660Z,15.23
2018-09-16T04:59:44.993Z,15.04
2018-09-16T05:02:13.230Z,15.34
2018-09-16T05:04:41.506Z,15.41
2018-09-16T05:07:09.816Z,15.47
2018-09-16T05:09:38.101Z,15.49
2018-09-16T05:12:06.715Z,15.52
2018-09-16T05:14:35.018Z,15.57
2018-09-16T05:17:03.322Z,15.55
2018-09-16T05:19:31.595Z,15.60
2018-09-16T05:21:59.912Z,15.62
2018-09-16T05:24:28.204Z,15.63
2018-09-16T05:26:56.568Z,15.61
2018-09-16T05:29:24.838Z,15.55
2018-09-16T05:31:53.136Z,15.63
2018-09-16T05:34:21.427Z,15.55
2018-09-16T05:36:49.829Z,15.54
2018-09-16T05:39:18.139Z,15.59
2018-09-16T05:41:46.494Z,15.51
2018-09-16T05:44:14.829Z,15.54
2018-09-16T05:46:43.122Z,15.55
2018-09-16T05:49:11.427Z,15.59
2018-09-16T05:51:39.735Z,15.65
2018-09-16T05:54:08.030Z,15.71
2018-09-16T05:56:36.338Z,15.75
2018-09-16T05:59:04.680Z,15.85
2018-09-16T06:01:32.984Z,15.89
2018-09-16T06:04:01.284Z,15.90
2018-09-16T06:06:29.589Z,15.98
2018-09-16T06:08:57.894Z,15.94
2018-09-16T06:11:26.189Z,16.02
2018-09-16T06:13:54.789Z,16.16
2018-09-16T06:16:23.086Z,16.30
2018-09-16T06:18:51.397Z,16.36
2018-09-16T06:21:19.683Z,16.47
2018-09-16T06:23:47.999Z,16.57
2018-09-16T06:26:16.357Z,16.67
2018-09-16T06:28:44.659Z,16.74
2018-09-16T06:31:12.941Z,16.85
2018-09-16T06:33:41.277Z,16.89
2018-09-16T06:36:09.524Z,16.91
2018-09-16T06:38:37.805Z,16.92
2018-09-16T06:41:06.281Z,16.99
2018-09-16T06:43:34.553Z,17.11
2018-09-16T06:46:02.941Z,17.26
2018-09-16T06:48:31.229Z,17.41
2018-09-16T06:50:59.592Z,17.58
2018-09-16T06:53:27.881Z,17.69
2018-09-16T06:55:56.201Z,17.86
2018-09-16T06:58:24.474Z,17.98
2018-09-16T07:00:52.853Z,18.08
2018-09-16T07:03:21.125Z,18.15
2018-09-16T07:05:49.592Z,18.20
2018-09-16T07:08:17.943Z,18.25
2018-09-16T07:10:46.260Z,18.29
2018-09-16T07:13:14.545Z,18.27
2018-09-16T07:15:42.840Z,18.22
2018-09-16T07:18:11.133Z,18.27
2018-09-16T07:20:39.461Z,18.32
2018-09-16T07:23:07.742Z,18.33
2018-09-16T07:25:36.038Z,18.39
2018-09-16T07:28:04.329Z,18.44
2018-09-16T07:30:32.659Z,18.47
2018-09-16T07:33:00.937Z,18.59
2018-09-16T07:35:29.237Z,18.66
2018-09-16T07:37:57.545Z,18.64
2018-09-16T07:40:25.813Z,18.68
2018-09-16T07:42:54.142Z,18.73
2018-09-16T07:45:22.421Z,18.68
2018-09-16T07:47:50.742Z,18.77
2018-09-16T07:50:19.115Z,18.91
2018-09-16T07:52:47.550Z,18.98
2018-09-16T07:55:15.774Z,19.02
2018-09-16T07:57:44.079Z,19.10
2018-09-16T08:00:12.399Z,19.14
2018-09-16T08:02:40.714Z,19.19
2018-09-16T08:05:09.074Z,19.29
2018-09-16T08:07:37.368Z,19.44
2018-09-16T08:10:05.689Z,19.54
2018-09-16T08:12:34.000Z,19.59
2018-09-16T08:15:02.269Z,19.67
2018-09-16T08:17:30.573Z,19.73
2018-09-16T08:19:58.849Z,19.83
2018-09-16T08:22:27.175Z,19.98
2018-09-16T08:24:55.704Z,20.08
2018-09-16T08:27:23.995Z,20.21
2018-09-16T08:29:52.286Z,20.29
2018-09-16T08:32:20.593Z,20.41
2018-09-16T08:34:48.857Z,20.49
2018-09-16T08:37:17.151Z,20.54
2018-09-16T08:39:45.488Z,20.68
2018-09-16T08:42:13.782Z,20.82
2018-09-16T08:44:42.077Z,20.96
2018-09-16T08:47:10.368Z,21.03
2018-09-16T08:49:38.663Z,21.13
2018-09-16T08:52:07.021Z,21.31
2018-09-16T08:54:35.325Z,21.36
2018-09-16T08:57:03.642Z,21.29
2018-09-16T08:59:32.000Z,21.24
2018-09-16T09:02:00.322Z,21.45
2018-09-16T09:04:28.656Z,21.61
2018-09-16T09:06:56.914Z,21.65
2018-09-16T09:09:25.223Z,21.64
2018-09-16T09:11:53.538Z,21.59
2018-09-16T09:14:21.909Z,21.73
2018-09-16T09:16:50.158Z,21.87
2018-09-16T09:19:18.474Z,21.90
2018-09-16T09:21:46.709Z,22.01
2018-09-16T09:24:14.957Z,22.26
2018-09-16T09:26:43.190Z,22.37
2018-09-16T09:29:11.457Z,22.45
2018-09-16T09:31:39.705Z,22.58
2018-09-16T09:34:07.960Z,22.74
2018-09-16T09:36:36.205Z,22.88
2018-09-16T09:39:06.525Z,22.89
2018-09-16T09:41:34.764Z,22.98
2018-09-16T09:44:03.053Z,23.11
2018-09-16T09:46:31.300Z,23.14
2018-09-16T09:48:59.528Z,23.01
2018-09-16T09:51:27.792Z,23.02
2018-09-16T09:53:56.049Z,23.02
2018-09-16T09:56:24.297Z,23.01
2018-09-16T09:58:52.599Z,23.10
2018-09-16T10:01:21.804Z,23.01
2018-09-16T10:03:50.056Z,23.11
2018-09-16T10:06:18.329Z,23.14
2018-09-16T10:08:46.571Z,23.09
2018-09-16T10:11:14.844Z,23.16
2018-09-16T10:13:43.069Z,23.28
2018-09-16T10:16:11.343Z,23.39
2018-09-16T10:18:39.613Z,23.35
2018-09-16T10:21:07.896Z,23.33
2018-09-16T10:23:36.133Z,23.37
2018-09-16T10:26:04.393Z,23.49
2018-09-16T10:28:32.625Z,23.54
2018-09-16T10:31:00.897Z,23.60
2018-09-16T10:33:29.141Z,23.66
2018-09-16T10:35:57.408Z,23.76
2018-09-16T10:38:25.656Z,23.88
2018-09-16T10:40:53.896Z,23.94
2018-09-16T10:43:22.131Z,24.04
2018-09-16T10:45:50.397Z,24.03
2018-09-16T10:48:18.665Z,24.14
2018-09-16T10:50:46.896Z,24.28
2018-09-16T10:53:16.260Z,24.32
2018-09-16T10:55:44.507Z,24.34
2018-09-16T10:58:13.033Z,24.45
2018-09-16T11:00:41.293Z,24.38
2018-09-16T11:03:09.540Z,24.36
2018-09-16T11:05:37.792Z,24.39
2018-09-16T11:08:06.152Z,24.38
2018-09-16T11:10:34.348Z,24.34
2018-09-16T11:13:02.798Z,24.35
2018-09-16T11:15:31.041Z,24.39
2018-09-16T11:17:59.297Z,24.49
2018-09-16T11:20:27.537Z,24.63
2018-09-16T11:22:55.792Z,24.71
2018-09-16T11:25:24.025Z,24.77
2018-09-16T11:27:52.313Z,24.74
2018-09-16T11:30:20.536Z,24.65
2018-09-16T11:32:48.799Z,24.59
2018-09-16T11:35:17.025Z,24.72
2018-09-16T11:37:45.720Z,24.75
2018-09-16T11:40:13.981Z,24.87
2018-09-16T11:42:42.248Z,25.00
2018-09-16T11:45:10.490Z,25.02
2018-09-16T11:47:38.792Z,25.07
2018-09-16T11:50:07.033Z,25.22
2018-09-16T11:52:35.265Z,25.22
2018-09-16T11:55:03.549Z,25.31
2018-09-16T11:57:31.784Z,25.31
2018-09-16T12:00:00.080Z,25.34
2018-09-16T12:02:28.349Z,25.37
2018-09-16T12:04:56.609Z,25.37
2018-09-16T12:07:24.853Z,25.30
2018-09-16T12:09:53.153Z,25.30
2018-09-16T12:12:21.385Z,25.21
2018-09-16T12:14:49.636Z,25.20
2018-09-16T12:17:17.864Z,25.36
2018-09-16T12:19:46.149Z,25.46
2018-09-16T12:22:14.419Z,25.51
2018-09-16T12:24:42.680Z,25.47
2018-09-16T12:27:10.926Z,25.44
2018-09-16T12:29:39.184Z,25.11
2018-09-16T12:32:07.413Z,24.98
2018-09-16T12:34:35.940Z,24.96
2018-09-16T12:37:04.192Z,24.95
2018-09-16T12:39:32.440Z,25.04
2018-09-16T12:42:00.694Z,25.10
2018-09-16T12:44:28.955Z,25.08
2018-09-16T12:46:57.188Z,25.17
2018-09-16T12:49:25.458Z,25.29
2018-09-16T12:51:53.697Z,25.41
2018-09-16T12:54:21.949Z,25.35
2018-09-16T12:56:50.308Z,25.54
2018-09-16T12:59:22.353Z,25.64
2018-09-16T13:01:50.642Z,25.73
2018-09-16T13:04:18.932Z,25.86
2018-09-16T13:06:47.165Z,25.93
2018-09-16T13:09:15.397Z,25.96
2018-09-16T13:11:43.637Z,25.98
2018-09-16T13:14:11.862Z,25.88
2018-09-16T13:16:40.117Z,25.92
2018-09-16T13:19:08.362Z,25.92
2018-09-16T13:21:36.629Z,25.91
2018-09-16T13:24:04.860Z,26.03
2018-09-16T13:26:33.125Z,26.03
2018-09-16T13:29:01.363Z,25.89
2018-09-16T13:31:29.647Z,25.93
2018-09-16T13:33:58.209Z,25.99
2018-09-16T13:36:26.478Z,26.17
2018-09-16T13:38:54.833Z,26.19
2018-09-16T13:41:23.106Z,26.16
2018-09-16T13:43:51.336Z,26.03
2018-09-16T13:46:19.616Z,26.06
2018-09-16T13:48:47.861Z,26.11
2018-09-16T13:51:16.138Z,26.04
2018-09-16T13:53:45.014Z,25.97
2018-09-16T13:56:13.236Z,25.95
2018-09-16T13:58:41.481Z,26.03
2018-09-16T14:01:09.736Z,26.10
2018-09-16T14:03:37.982Z,26.18
2018-09-16T14:06:06.254Z,26.24
2018-09-16T14:08:34.500Z,26.22
2018-09-16T14:11:02.728Z,26.35
2018-09-16T14:13:30.976Z,26.31
2018-09-16T14:15:59.203Z,26.30
2018-09-16T14:18:27.480Z,26.22
2018-09-16T14:20:55.836Z,26.04
2018-09-16T14:23:24.061Z,25.83
2018-09-16T14:25:52.589Z,25.81
2018-09-16T14:28:23.039Z,25.86
2018-09-16T14:30:51.249Z,25.92
2018-09-16T14:33:19.496Z,25.97
2018-09-16T14:35:47.724Z,26.03
2018-09-16T14:38:15.973Z,26.02
2018-09-16T14:40:44.257Z,25.94
2018-09-16T14:43:12.613Z,26.06
2018-09-16T14:45:40.830Z,25.99
2018-09-16T14:48:09.088Z,25.82
2018-09-16T14:50:37.353Z,25.83
2018-09-16T14:53:05.625Z,25.86
2018-09-16T14:55:33.878Z,25.79
2018-09-16T14:58:02.101Z,25.64
2018-09-16T15:00:30.390Z,25.68
2018-09-16T15:02:59.744Z,25.76
2018-09-16T15:05:27.992Z,25.77
2018-09-16T15:07:56.233Z,25.75
2018-09-16T15:10:24.484Z,25.75
2018-09-16T15:12:53.673Z,25.68
2018-09-16T15:15:21.968Z,25.71
2018-09-16T15:17:50.200Z,25.77
2018-09-16T15:20:18.448Z,25.75
2018-09-16T15:22:46.704Z,25.79
2018-09-16T15:25:14.957Z,25.75
2018-09-16T15:27:43.189Z,25.68
2018-09-16T15:30:11.472Z,25.75
2018-09-16T15:32:39.712Z,25.82
2018-09-16T15:35:08.010Z,25.90
2018-09-16T15:37:36.267Z,25.97
2018-09-16T15:40:04.540Z,25.99
2018-09-16T15:42:32.780Z,26.03
2018-09-16T15:45:01.062Z,25.99
2018-09-16T15:47:29.296Z,25.92
2018-09-16T15:49:57.558Z,25.76
2018-09-16T15:52:25.809Z,25.80
2018-09-16T15:54:54.117Z,25.81
2018-09-16T15:57:22.362Z,25.85
2018-09-16T15:59:50.665Z,25.87
2018-09-16T16:02:18.886Z,25.90
2018-09-16T16:04:47.165Z,25.84
2018-09-16T16:07:15.396Z,25.73
2018-09-16T16:09:44.000Z,25.67
2018-09-16T16:12:12.253Z,25.60
2018-09-16T16:14:40.493Z,25.65
2018-09-16T16:17:08.766Z,25.58
2018-09-16T16:19:37.009Z,25.49
2018-09-16T16:22:05.261Z,25.41
2018-09-16T16:24:33.617Z,25.37
2018-09-16T16:27:01.898Z,25.23
2018-09-16T16:29:30.130Z,25.14
2018-09-16T16:31:58.407Z,25.14
2018-09-16T16:34:26.724Z,25.08
2018-09-16T16:36:54.929Z,25.01
2018-09-16T16:39:23.158Z,25.01
2018-09-16T16:41:51.485Z,24.99
2018-09-16T16:44:19.704Z,24.95
2018-09-16T16:46:47.956Z,24.83
2018-09-16T16:49:16.221Z,24.92
2018-09-16T16:51:44.481Z,24.87
2018-09-16T16:54:13.886Z,24.85
2018-09-16T16:56:42.164Z,24.83
2018-09-16T16:59:10.412Z,24.85
2018-09-16T17:01:38.677Z,24.80
2018-09-16T17:04:06.913Z,24.78
2018-09-16T17:06:35.192Z,24.73
2018-09-16T17:09:03.620Z,24.68
2018-09-16T17:11:31.865Z,24.64
2018-09-16T17:14:00.117Z,24.61
2018-09-16T17:16:28.377Z,24.57
2018-09-16T17:18:56.673Z,24.58
2018-09-16T17:21:24.908Z,24.53
2018-09-16T17:23:53.277Z,24.51
2018-09-16T17:26:21.854Z,24.51
2018-09-16T17:28:50.213Z,24.49
2018-09-16T17:31:18.505Z,24.47
2018-09-16T17:33:46.760Z,24.44
2018-09-16T17:36:14.978Z,24.40
2018-09-16T17:38:43.361Z,24.37
2018-09-16T17:41:11.637Z,24.37
2018-09-16T17:43:40.033Z,24.35
2018-09-16T17:46:08.694Z,24.34
2018-09-16T17:48:37.028Z,24.27
2018-09-16T17:51:05.460Z,24.22
2018-09-16T17:53:33.773Z,24.17
2018-09-16T17:56:02.205Z,24.14
2018-09-16T17:58:30.469Z,24.09
2018-09-16T18:00:58.753Z,24.06
2018-09-16T18:03:27.047Z,23.99
2018-09-16T18:05:56.235Z,23.96
2018-09-16T18:08:30.037Z,23.92
2018-09-16T18:10:58.412Z,23.90
2018-09-16T18:13:26.783Z,23.90
2018-09-16T18:15:55.158Z,23.87
2018-09-16T18:18:23.465Z,23.74
2018-09-16T18:20:51.821Z,23.64
2018-09-16T18:23:20.163Z,23.62
2018-09-16T18:25:48.408Z,23.60
2018-09-16T18:28:16.720Z,23.55
2018-09-16T18:30:45.013Z,23.48
2018-09-16T18:33:13.265Z,23.45
2018-09-16T18:35:42.368Z,23.42
2018-09-16T18:38:10.674Z,23.38
2018-09-16T18:40:38.928Z,23.32
2018-09-16T18:43:07.270Z,23.27
2018-09-16T18:45:35.565Z,23.26
2018-09-16T18:48:03.845Z,23.25
2018-09-16T18:50:32.440Z,23.23
2018-09-16T18:53:00.676Z,23.06
2018-09-16T18:55:28.993Z,23.09
2018-09-16T18:57:57.289Z,23.05
2018-09-16T19:00:25.817Z,22.96
2018-09-16T19:02:54.240Z,22.94
2018-09-16T19:05:22.502Z,22.90
2018-09-16T19:07:51.205Z,22.86
2018-09-16T19:10:19.816Z,22.77
2018-09-16T19:12:48.108Z,22.68
2018-09-16T19:15:16.453Z,22.64
2018-09-16T19:17:44.748Z,22.60
2018-09-16T19:20:13.029Z,22.56
2018-09-16T19:22:41.312Z,22.52
2018-09-16T19:25:09.650Z,22.50
2018-09-16T19:27:38.633Z,22.47
2018-09-16T19:30:07.207Z,22.46
2018-09-16T19:32:35.506Z,22.44
2018-09-16T19:35:04.088Z,22.44
2018-09-16T19:37:32.339Z,22.41
2018-09-16T19:40:00.612Z,22.30
2018-09-16T19:42:28.889Z,22.23
2018-09-16T19:44:57.153Z,22.17
2018-09-16T19:47:26.399Z,22.07
2018-09-16T19:49:54.640Z,21.98
2018-09-16T19:52:22.995Z,21.90
2018-09-16T19:54:51.308Z,21.86
2018-09-16T19:57:19.537Z,21.79
2018-09-16T19:59:47.806Z,21.82
2018-09-16T20:02:16.066Z,21.78
2018-09-16T20:04:44.401Z,21.78
2018-09-16T20:07:13.057Z,21.70
2018-09-16T20:09:41.450Z,21.67
2018-09-16T20:12:09.857Z,21.64
2018-09-16T20:14:38.092Z,21.62
2018-09-16T20:17:06.313Z,21.63
2018-09-16T20:19:34.657Z,21.60
2018-09-16T20:22:02.878Z,21.60
2018-09-16T20:24:31.117Z,21.61
2018-09-16T20:26:59.355Z,21.64
2018-09-16T20:29:27.609Z,21.70
2018-09-16T20:31:55.919Z,21.71
2018-09-16T20:34:24.173Z,21.78
2018-09-16T20:36:52.441Z,21.77
2018-09-16T20:39:20.674Z,21.74
2018-09-16T20:41:49.011Z,21.72
2018-09-16T20:44:17.572Z,21.69
2018-09-16T20:46:45.852Z,21.70
2018-09-16T20:49:14.241Z,21.67
2018-09-16T20:51:42.468Z,21.66
2018-09-16T20:54:10.865Z,21.63
2018-09-16T20:56:39.363Z,21.60
2018-09-16T20:59:07.788Z,21.53
2018-09-16T21:01:36.125Z,21.49
2018-09-16T21:04:05.329Z,21.45
2018-09-16T21:06:33.544Z,21.43
2018-09-16T21:09:01.803Z,21.41
2018-09-16T21:11:30.037Z,21.39
2018-09-16T21:13:58.326Z,21.33
2018-09-16T21:16:26.557Z,21.26
2018-09-16T21:18:54.792Z,21.15
2018-09-16T21:21:23.902Z,21.08
2018-09-16T21:23:52.898Z,21.10
2018-09-16T21:26:21.330Z,21.04
2018-09-16T21:28:49.809Z,20.97
2018-09-16T21:31:18.040Z,20.89
2018-09-16T21:33:46.248Z,20.81
2018-09-16T21:36:14.486Z,20.75
2018-09-16T21:38:42.735Z,20.72
2018-09-16T21:41:10.974Z,20.65
2018-09-16T21:43:39.177Z,20.60
2018-09-16T21:46:07.426Z,20.54
2018-09-16T21:48:35.645Z,20.50
2018-09-16T21:51:03.887Z,20.53
2018-09-16T21:53:32.097Z,20.53
2018-09-16T21:56:00.332Z,20.50
2018-09-16T21:58:28.537Z,20.42
2018-09-16T22:00:56.804Z,20.31
2018-09-16T22:03:25.948Z,20.19
2018-09-16T22:05:54.865Z,20.03
2018-09-16T22:08:23.108Z,19.95
2018-09-16T22:10:51.349Z,19.82
2018-09-16T22:13:19.628Z,19.79
2018-09-16T22:15:47.992Z,19.83
2018-09-16T22:18:16.229Z,19.84
2018-09-16T22:20:44.485Z,19.77
2018-09-16T22:23:12.683Z,19.72
2018-09-16T22:25:40.921Z,19.68
2018-09-16T22:28:09.141Z,19.68
2018-09-16T22:30:37.404Z,19.65
2018-09-16T22:33:05.640Z,19.64
2018-09-16T22:35:33.906Z,19.59
2018-09-16T22:38:02.144Z,19.55
2018-09-16T22:40:30.348Z,19.50
2018-09-16T22:42:58.580Z,19.49
2018-09-16T22:45:26.800Z,19.46
2018-09-16T22:47:55.032Z,19.36
2018-09-16T22:50:23.237Z,19.37
2018-09-16T22:52:51.456Z,19.36
2018-09-16T22:55:19.657Z,19.34
2018-09-16T22:57:47.920Z,19.28
2018-09-16T23:00:17.726Z,19.21
2018-09-16T23:02:45.972Z,19.11
2018-09-16T23:05:14.208Z,19.07
2018-09-16T23:07:42.965Z,19.08
2018-09-16T23:10:11.173Z,19.03
2018-09-16T23:12:39.716Z,18.98
2018-09-16T23:15:07.947Z,18.87
2018-09-16T23:17:36.172Z,18.84
2018-09-16T23:20:04.424Z,18.79
2018-09-16T23:22:32.652Z,18.75
2018-09-16T23:25:00.869Z,18.67
2018-09-16T23:27:29.097Z,18.66
2018-09-16T23:29:57.325Z,18.64
2018-09-16T23:32:25.556Z,18.60
2018-09-16T23:34:53.796Z,18.60
2018-09-16T23:37:22.053Z,18.54
2018-09-16T23:39:50.284Z,18.61
2018-09-16T23:42:18.496Z,18.61
2018-09-16T23:44:46.729Z,18.52
2018-09-16T23:47:14.941Z,18.46
2018-09-16T23:49:43.179Z,18.39
2018-09-16T23:52:11.389Z,18.32
2018-09-16T23:54:39.640Z,18.25
2018-09-16T23:57:07.857Z,18.19
2018-09-16T23:59:36.108Z,18.12
